Time;durP1;ratioP1;P1;durP2;ratioP2;P2;SDS_P1;SDS_P2;PMS_P1;PMS_P2;Temp;Humidity;BMP_temperature;BMP_pressure;BME280_temperature;BME280_humidity;BME280_pressure;Samples;Min_cycle;Max_cycle;Signal;HPM_P1;HPM_P2
2023/08/11 00:00:53;;;;;;;;;;;;;;;-144.99;nan;52378.78;5022092;28;20416;-70
2023/08/11 00:03:19;;;;;;;;;;;;;;;-144.99;nan;52354.34;5010997;28;19946;-69
2023/08/11 00:05:46;;;;;;;;;;;;;;;-144.99;nan;52388.97;5030808;28;20296;-69
2023/08/11 00:08:13;;;;;;;;;;;;;;;-144.99;nan;52297.25;5022066;28;20487;-66
2023/08/11 00:10:40;;;;;;;;;;;;;;;-144.99;nan;52366.56;5029312;28;20437;-66
2023/08/11 00:13:12;;;;;;;;;;;;;;;-144.99;nan;52358.41;5030115;28;19972;-66
2023/08/11 00:15:39;;;;;;;;;;;;;;;-144.99;nan;52350.25;5018692;28;20378;-66
2023/08/11 00:18:08;;;;;;;;;;;;;;;-144.99;nan;52378.78;5027137;28;19953;-65
2023/08/11 00:20:35;;;;;;;;;;;;;;;-144.99;nan;52342.09;5027338;28;20027;-66
2023/08/11 00:23:01;;;;;;;;;;;;;;;-144.99;nan;52325.81;5022569;28;20131;-66
2023/08/11 00:25:27;;;;;;;;;;;;;;;-144.99;nan;52338.03;5015919;28;20103;-66
2023/08/11 00:27:54;;;;;;;;;;;;;;;-144.99;nan;52368.59;5022230;28;19944;-66
2023/08/11 00:30:20;;;;;;;;;;;;;;;-144.99;nan;52362.50;5022752;28;20424;-66
2023/08/11 00:32:48;;;;;;;;;;;;;;;-144.99;nan;52403.25;5027893;28;20032;-66
2023/08/11 00:35:16;;;;;;;;;;;;;;;-144.99;nan;52313.56;5028040;28;20355;-65
2023/08/11 00:37:43;;;;;;;;;;;;;;;-144.99;nan;52364.53;5029483;28;20010;-65
2023/08/11 00:40:11;;;;;;;;;;;;;;;-144.99;nan;52362.50;5034008;28;19951;-66
2023/08/11 00:42:38;;;;;;;;;;;;;;;-144.99;nan;52317.66;5031470;28;20028;-66
2023/08/11 00:45:05;;;;;;;;;;;;;;;-144.99;nan;52350.25;5024938;28;20053;-66
2023/08/11 00:47:32;;;;;;;;;;;;;;;-144.99;nan;52358.41;5029181;28;19951;-66
2023/08/11 00:49:58;;;;;;;;;;;;;;;-144.99;nan;52342.09;5027873;28;19964;-66
2023/08/11 00:52:26;;;;;;;;;;;;;;;-144.99;nan;52346.19;5023941;28;20042;-66
2023/08/11 00:54:53;;;;;;;;;;;;;;;-144.99;nan;52333.94;5029796;28;19946;-66
2023/08/11 00:57:20;;;;;;;;;;;;;;;-144.99;nan;52344.16;5027547;28;19996;-66
2023/08/11 00:59:46;;;;;;;;;;;;;;;-144.99;nan;52364.53;5028834;28;20486;-66
2023/08/11 01:02:13;;;;;;;;;;;;;;;-144.99;nan;52374.72;5028660;28;20056;-66
2023/08/11 01:04:40;;;;;;;;;;;;;;;-144.99;nan;52354.34;5029860;28;19969;-66
2023/08/11 01:07:11;;;;;;;;;;;;;;;-144.99;nan;52395.09;5023838;28;20032;-66
2023/08/11 01:09:43;;;;;;;;;;;;;;;-144.99;nan;52321.72;5028453;28;19973;-66
2023/08/11 01:12:14;;;;;;;;;;;;;;;-144.99;nan;52362.50;5026485;28;20038;-63
2023/08/11 01:14:48;;;;;;;;;;;;;;;-144.99;nan;52305.41;5027275;28;19988;-63
2023/08/11 01:17:16;;;;;;;;;;;;;;;-144.99;nan;52344.16;5024150;28;20330;-65
2023/08/11 01:19:46;;;;;;;;;;;;;;;-144.99;nan;52360.44;5020653;28;19940;-65
2023/08/11 01:22:15;;;;;;;;;;;;;;;-144.99;nan;52338.03;5021159;28;19973;-64
2023/08/11 01:24:44;;;;;;;;;;;;;;;-144.99;nan;52309.50;5021027;28;19950;-63
2023/08/11 01:27:11;;;;;;;;;;;;;;;-144.99;nan;52336.00;5019723;28;20038;-63
2023/08/11 01:29:37;;;;;;;;;;;;;;;-144.99;nan;52338.03;5025434;28;19971;-69
2023/08/11 01:32:04;;;;;;;;;;;;;;;-144.99;nan;52354.34;5027308;28;19994;-70
2023/08/11 01:34:31;;;;;;;;;;;;;;;-144.99;nan;52321.72;5027700;28;19982;-68
2023/08/11 01:36:59;;;;;;;;;;;;;;;-144.99;nan;52368.59;5029327;28;19993;-68
2023/08/11 01:39:25;;;;;;;;;;;;;;;-144.99;nan;52358.41;5027901;28;19982;-69
2023/08/11 01:41:53;;;;;;;;;;;;;;;-144.99;nan;52329.88;5024822;28;19955;-69
2023/08/11 01:44:20;;;;;;;;;;;;;;;-144.99;nan;52319.69;5024918;28;19971;-69
2023/08/11 01:46:48;;;;;;;;;;;;;;;-144.99;nan;52344.16;5028074;28;19993;-69
2023/08/11 01:49:15;;;;;;;;;;;;;;;-144.99;nan;52346.19;5026313;28;19950;-69
2023/08/11 01:51:42;;;;;;;;;;;;;;;-144.99;nan;52358.41;5023342;28;19971;-73
2023/08/11 01:54:09;;;;;;;;;;;;;;;-144.99;nan;52329.88;5022564;28;19992;-72
2023/08/11 01:56:35;;;;;;;;;;;;;;;-144.99;nan;52338.03;5035826;28;19944;-73
2023/08/11 01:59:05;;;;;;;;;;;;;;;-144.99;nan;52333.94;5046243;28;19951;-73
2023/08/11 02:01:31;;;;;;;;;;;;;;;-144.99;nan;52354.34;5028123;28;20031;-73
2023/08/11 02:03:58;;;;;;;;;;;;;;;-144.99;nan;52356.38;5024656;28;20368;-73
2023/08/11 02:06:25;;;;;;;;;;;;;;;-144.99;nan;52333.94;5025452;28;20036;-71
2023/08/11 02:08:51;;;;;;;;;;;;;;;-144.99;nan;52346.19;5027884;28;19942;-72
2023/08/11 02:11:18;;;;;;;;;;;;;;;-144.99;nan;52364.53;5016992;28;19999;-72
2023/08/11 02:13:44;;;;;;;;;;;;;;;-144.99;nan;52346.19;5026935;28;19986;-72
2023/08/11 02:16:12;;;;;;;;;;;;;;;-144.99;nan;52333.94;5024434;28;20315;-72
2023/08/11 02:18:39;;;;;;;;;;;;;;;-144.99;nan;52305.41;5027070;28;20236;-72
2023/08/11 02:21:07;;;;;;;;;;;;;;;-144.99;nan;52338.03;5027688;28;19998;-72
2023/08/11 02:23:33;;;;;;;;;;;;;;;-144.99;nan;52311.53;5022122;28;20455;-72
2023/08/11 02:26:00;;;;;;;;;;;;;;;-144.99;nan;52327.84;5024800;28;19941;-73
2023/08/11 02:28:28;;;;;;;;;;;;;;;-144.99;nan;52264.66;5028577;28;20059;-72
2023/08/11 02:30:54;;;;;;;;;;;;;;;-144.99;nan;52350.25;5025479;28;19956;-73
2023/08/11 02:33:22;;;;;;;;;;;;;;;-144.99;nan;52362.50;5020184;28;19940;-72
2023/08/11 02:35:49;;;;;;;;;;;;;;;-144.99;nan;52348.22;5030464;28;19942;-70
2023/08/11 02:38:15;;;;;;;;;;;;;;;-144.99;nan;52338.03;5029532;28;19947;-71
2023/08/11 02:40:42;;;;;;;;;;;;;;;-144.99;nan;52317.66;5024999;28;20475;-71
2023/08/11 02:43:08;;;;;;;;;;;;;;;-144.99;nan;52331.91;5028115;28;19961;-76
2023/08/11 02:45:35;;;;;;;;;;;;;;;-144.99;nan;52293.19;5020093;28;20435;-78
2023/08/11 02:48:02;;;;;;;;;;;;;;;-144.99;nan;52346.19;5019186;28;20005;-79
2023/08/11 02:50:30;;;;;;;;;;;;;;;-144.99;nan;52352.28;5024221;28;20339;-80
2023/08/11 02:52:56;;;;;;;;;;;;;;;-144.99;nan;52350.25;5028818;28;20106;-79
2023/08/11 02:55:23;;;;;;;;;;;;;;;-144.99;nan;52301.34;5020159;28;19972;-79
2023/08/11 02:57:49;;;;;;;;;;;;;;;-144.99;nan;52313.56;5026377;28;20453;-69
2023/08/11 03:00:16;;;;;;;;;;;;;;;-144.99;nan;52348.22;5027535;28;19975;-69
2023/08/11 03:02:45;;;;;;;;;;;;;;;-144.99;nan;52317.66;5027851;28;19972;-69
2023/08/11 03:05:12;;;;;;;;;;;;;;;-144.99;nan;52333.94;5025589;28;20504;-69
2023/08/11 03:07:40;;;;;;;;;;;;;;;-144.99;nan;52358.41;5022921;28;19973;-66
2023/08/11 03:10:07;;;;;;;;;;;;;;;-144.99;nan;52321.72;5025085;28;19944;-66
2023/08/11 03:12:34;;;;;;;;;;;;;;;-144.99;nan;52305.41;5025494;28;19997;-66
2023/08/11 03:15:00;;;;;;;;;;;;;;;-144.99;nan;52331.91;5033372;28;20039;-66
2023/08/11 03:17:27;;;;;;;;;;;;;;;-144.99;nan;52321.72;5030307;28;19950;-66
2023/08/11 03:19:53;;;;;;;;;;;;;;;-144.99;nan;52364.53;5029375;28;19956;-67
2023/08/11 03:22:20;;;;;;;;;;;;;;;-144.99;nan;52299.31;5023464;28;19987;-67
2023/08/11 03:24:48;;;;;;;;;;;;;;;-144.99;nan;52329.88;5023277;28;20485;-67
2023/08/11 03:27:15;;;;;;;;;;;;;;;-144.99;nan;52336.00;5023890;28;20296;-65
2023/08/11 03:29:41;;;;;;;;;;;;;;;-144.99;nan;52329.88;5026226;28;20361;-67
2023/08/11 03:32:08;;;;;;;;;;;;;;;-144.99;nan;52321.72;5024278;28;20462;-67
2023/08/11 03:34:34;;;;;;;;;;;;;;;-144.99;nan;52329.88;5031197;28;20050;-67
2023/08/11 03:37:00;;;;;;;;;;;;;;;-144.99;nan;52321.72;5024846;28;19986;-67
2023/08/11 03:39:27;;;;;;;;;;;;;;;-144.99;nan;52325.81;5023870;28;19951;-66
2023/08/11 03:41:55;;;;;;;;;;;;;;;-144.99;nan;52321.72;5033776;22;19973;-64
2023/08/11 03:44:21;;;;;;;;;;;;;;;-144.99;nan;52350.25;5001740;28;20040;-65
2023/08/11 03:46:48;;;;;;;;;;;;;;;-144.99;nan;52333.94;5009647;28;19982;-65
2023/08/11 03:49:15;;;;;;;;;;;;;;;-144.99;nan;52333.94;5004141;28;20178;-63
2023/08/11 03:51:41;;;;;;;;;;;;;;;-144.99;nan;52303.38;5000547;28;20050;-65
2023/08/11 03:54:08;;;;;;;;;;;;;;;-144.99;nan;52333.94;5005413;28;20042;-65
2023/08/11 03:56:34;;;;;;;;;;;;;;;-144.99;nan;52321.72;5012309;28;19943;-65
2023/08/11 03:59:02;;;;;;;;;;;;;;;-144.99;nan;52342.09;5008507;28;19949;-65
2023/08/11 04:01:29;;;;;;;;;;;;;;;-144.99;nan;52333.94;5007253;28;19956;-65
2023/08/11 04:03:55;;;;;;;;;;;;;;;-144.99;nan;52313.56;5002020;28;20708;-63
2023/08/11 04:06:22;;;;;;;;;;;;;;;-144.99;nan;52338.03;5014741;28;19992;-64
2023/08/11 04:08:49;;;;;;;;;;;;;;;-144.99;nan;52313.56;5006614;28;19946;-62
2023/08/11 04:11:15;;;;;;;;;;;;;;;-144.99;nan;52331.91;5010667;28;19970;-65
2023/08/11 04:13:42;;;;;;;;;;;;;;;-144.99;nan;52327.84;5008755;28;19942;-65
2023/08/11 04:16:10;;;;;;;;;;;;;;;-144.99;nan;52309.50;5005955;28;19945;-64
2023/08/11 04:18:37;;;;;;;;;;;;;;;-144.99;nan;52319.69;5009187;28;20401;-64
2023/08/11 04:21:04;;;;;;;;;;;;;;;-144.99;nan;52323.75;5010333;28;20601;-64
2023/08/11 04:23:30;;;;;;;;;;;;;;;-144.99;nan;52303.38;5005037;28;19950;-64
2023/08/11 04:25:56;;;;;;;;;;;;;;;-144.99;nan;52329.88;5001288;28;20052;-65
2023/08/11 04:28:23;;;;;;;;;;;;;;;-144.99;nan;52350.25;5009004;28;19954;-68
2023/08/11 04:30:50;;;;;;;;;;;;;;;-144.99;nan;52342.09;5010941;28;20626;-68
2023/08/11 04:33:18;;;;;;;;;;;;;;;-144.99;nan;52293.19;5010736;28;20034;-68
2023/08/11 04:35:44;;;;;;;;;;;;;;;-144.99;nan;52325.81;5009176;28;19947;-67
2023/08/11 04:38:11;;;;;;;;;;;;;;;-144.99;nan;52346.19;5006246;28;19987;-68
2023/08/11 04:40:37;;;;;;;;;;;;;;;-144.99;nan;52342.09;5008255;28;19999;-68
2023/08/11 04:43:04;;;;;;;;;;;;;;;-144.99;nan;52358.41;5010854;28;19959;-68
2023/08/11 04:45:30;;;;;;;;;;;;;;;-144.99;nan;52358.41;5008472;28;19941;-69
2023/08/11 04:47:57;;;;;;;;;;;;;;;-144.99;nan;52313.56;5008213;28;20000;-68
2023/08/11 04:50:25;;;;;;;;;;;;;;;-144.99;nan;52317.66;5009850;28;19943;-68
2023/08/11 04:52:52;;;;;;;;;;;;;;;-144.99;nan;52280.97;5010576;28;20347;-68
2023/08/11 04:55:18;;;;;;;;;;;;;;;-144.99;nan;52321.72;5004142;28;19949;-67
2023/08/11 04:57:45;;;;;;;;;;;;;;;-144.99;nan;52313.56;5008889;28;20037;-70
2023/08/11 05:00:14;;;;;;;;;;;;;;;-144.99;nan;52327.84;5000909;28;20035;-68
2023/08/11 05:02:41;;;;;;;;;;;;;;;-144.99;nan;52309.50;5005424;28;20206;-69
2023/08/11 05:05:08;;;;;;;;;;;;;;;-144.99;nan;52342.09;5002964;28;19998;-69
2023/08/11 05:07:36;;;;;;;;;;;;;;;-144.99;nan;52329.88;5009146;28;20040;-70
2023/08/11 05:10:04;;;;;;;;;;;;;;;-144.99;nan;52293.19;5009690;28;19985;-71
2023/08/11 05:12:30;;;;;;;;;;;;;;;-144.99;nan;52285.03;5011531;28;19962;-70
2023/08/11 05:14:57;;;;;;;;;;;;;;;-144.99;nan;52325.81;5010513;28;19981;-71
2023/08/11 05:17:23;;;;;;;;;;;;;;;-144.99;nan;52285.03;4313596;28;10000722;-73
2023/08/11 05:19:50;;;;;;;;;;;;;;;-144.99;nan;52301.34;5003313;28;20016;-73
2023/08/11 05:22:16;;;;;;;;;;;;;;;-144.99;nan;52305.41;4999300;28;20050;-71
2023/08/11 05:24:44;;;;;;;;;;;;;;;-144.99;nan;52309.50;5008336;28;19948;-74
2023/08/11 05:27:11;;;;;;;;;;;;;;;-144.99;nan;52301.34;5004339;28;19954;-76
2023/08/11 05:29:38;;;;;;;;;;;;;;;-144.99;nan;52303.38;5006473;28;20005;-74
2023/08/11 05:32:04;;;;;;;;;;;;;;;-144.99;nan;52309.50;5006381;28;20456;-74
2023/08/11 05:34:31;;;;;;;;;;;;;;;-144.99;nan;52291.16;5007472;28;20040;-73
2023/08/11 05:36:57;;;;;;;;;;;;;;;-144.99;nan;52331.91;5008047;28;20437;-72
2023/08/11 05:39:24;;;;;;;;;;;;;;;-144.99;nan;52305.41;5008441;28;19944;-72
2023/08/11 05:41:52;;;;;;;;;;;;;;;-144.99;nan;52325.81;5010479;28;19968;-74
2023/08/11 05:44:18;;;;;;;;;;;;;;;-144.99;nan;52336.00;5000953;28;19949;-74
2023/08/11 05:46:45;;;;;;;;;;;;;;;-144.99;nan;52321.72;5004846;28;19945;-74
2023/08/11 05:49:11;;;;;;;;;;;;;;;-144.99;nan;52305.41;5005772;28;19945;-73
2023/08/11 05:51:38;;;;;;;;;;;;;;;-144.99;nan;52317.66;4994799;28;20001;-73
2023/08/11 05:54:05;;;;;;;;;;;;;;;-144.99;nan;52348.22;4997658;28;20058;-75
2023/08/11 05:56:31;;;;;;;;;;;;;;;-144.99;nan;52336.00;5007186;28;20072;-73
2023/08/11 05:58:59;;;;;;;;;;;;;;;-144.99;nan;52264.66;5007699;28;19975;-74
2023/08/11 06:01:25;;;;;;;;;;;;;;;-144.99;nan;52280.97;5008593;28;19965;-73
2023/08/11 06:03:52;;;;;;;;;;;;;;;-144.99;nan;52252.44;5004315;28;19946;-73
2023/08/11 06:06:18;;;;;;;;;;;;;;;-144.99;nan;52321.72;5005921;28;20600;-73
2023/08/11 06:08:45;;;;;;;;;;;;;;;-144.99;nan;52333.94;5008734;28;19947;-73
2023/08/11 06:11:12;;;;;;;;;;;;;;;-144.99;nan;52291.16;5005162;28;19971;-73
2023/08/11 06:13:38;;;;;;;;;;;;;;;-144.99;nan;52309.50;5009565;28;19943;-73
2023/08/11 06:16:06;;;;;;;;;;;;;;;-144.99;nan;52291.16;5006609;28;20037;-73
2023/08/11 06:18:32;;;;;;;;;;;;;;;-144.99;nan;52313.56;5005551;28;19947;-73
2023/08/11 06:21:00;;;;;;;;;;;;;;;-144.99;nan;52338.03;5019623;28;19947;-73
2023/08/11 06:23:27;;;;;;;;;;;;;;;-144.99;nan;52289.13;5021825;28;19946;-72
2023/08/11 06:25:53;;;;;;;;;;;;;;;-144.99;nan;52313.56;5007483;28;19948;-72
2023/08/11 06:28:20;;;;;;;;;;;;;;;-144.99;nan;52297.25;5010587;28;19981;-75
2023/08/11 06:30:46;;;;;;;;;;;;;;;-144.99;nan;52276.88;5009487;28;20047;-72
2023/08/11 06:33:14;;;;;;;;;;;;;;;-144.99;nan;52268.72;5009186;28;19996;-74
2023/08/11 06:35:42;;;;;;;;;;;;;;;-144.99;nan;52319.69;5010433;28;20039;-73
2023/08/11 06:38:08;;;;;;;;;;;;;;;-144.99;nan;52256.50;5011122;28;19942;-75
2023/08/11 06:40:35;;;;;;;;;;;;;;;-144.99;nan;52329.88;5013339;28;19950;-73
2023/08/11 06:43:02;;;;;;;;;;;;;;;-144.99;nan;52301.34;5002220;28;19994;-74
2023/08/11 06:45:28;;;;;;;;;;;;;;;-144.99;nan;52317.66;5007094;28;20003;-72
2023/08/11 06:47:55;;;;;;;;;;;;;;;-144.99;nan;52317.66;5005240;28;20039;-75
2023/08/11 06:50:23;;;;;;;;;;;;;;;-144.99;nan;52293.19;5007371;28;20250;-73
2023/08/11 06:52:49;;;;;;;;;;;;;;;-144.99;nan;52305.41;5008501;28;19976;-75
2023/08/11 06:55:16;;;;;;;;;;;;;;;-144.99;nan;52305.41;5004874;28;19962;-74
2023/08/11 06:57:42;;;;;;;;;;;;;;;-144.99;nan;52309.50;5007987;28;19988;-73
2023/08/11 07:00:09;;;;;;;;;;;;;;;-144.99;nan;52301.34;5006587;28;20405;-73
2023/08/11 07:02:36;;;;;;;;;;;;;;;-144.99;nan;52280.97;4997330;28;20010;-74
2023/08/11 07:05:02;;;;;;;;;;;;;;;-144.99;nan;52285.03;4997165;28;19942;-75
2023/08/11 07:07:30;;;;;;;;;;;;;;;-144.99;nan;52270.78;5005529;28;19993;-73
2023/08/11 07:09:57;;;;;;;;;;;;;;;-144.99;nan;52266.69;5001405;28;20039;-75
2023/08/11 07:12:23;;;;;;;;;;;;;;;-144.99;nan;52295.22;5005668;28;20003;-75
2023/08/11 07:14:50;;;;;;;;;;;;;;;-144.99;nan;52346.19;5001353;28;19951;-71
2023/08/11 07:17:17;;;;;;;;;;;;;;;-144.99;nan;52309.50;5003346;28;19957;-71
2023/08/11 07:19:44;;;;;;;;;;;;;;;-144.99;nan;52317.66;4998320;28;19991;-72
2023/08/11 07:22:10;;;;;;;;;;;;;;;-144.99;nan;52303.38;5005957;28;20070;-72
2023/08/11 07:24:38;;;;;;;;;;;;;;;-144.99;nan;52285.03;5004469;28;20001;-71
2023/08/11 07:27:04;;;;;;;;;;;;;;;-144.99;nan;52293.19;5005502;28;20007;-73
2023/08/11 07:29:31;;;;;;;;;;;;;;;-144.99;nan;52289.13;5007196;28;20034;-72
2023/08/11 07:31:58;;;;;;;;;;;;;;;-144.99;nan;52311.53;5007251;28;19976;-72
2023/08/11 07:34:24;;;;;;;;;;;;;;;-144.99;nan;52340.06;5005039;28;20006;-72
2023/08/11 07:36:50;;;;;;;;;;;;;;;-144.99;nan;52338.03;5006926;28;20457;-72
2023/08/11 07:39:17;;;;;;;;;;;;;;;-144.99;nan;52293.19;5006126;28;20349;-72
2023/08/11 07:41:45;;;;;;;;;;;;;;;-144.99;nan;52293.19;5005331;28;20058;-71
2023/08/11 07:44:11;;;;;;;;;;;;;;;-144.99;nan;52313.56;5001209;28;20004;-72
2023/08/11 07:46:38;;;;;;;;;;;;;;;-144.99;nan;52342.09;5001327;28;20049;-72
2023/08/11 07:49:04;;;;;;;;;;;;;;;-144.99;nan;52256.50;5005111;28;19950;-72
2023/08/11 07:51:31;;;;;;;;;;;;;;;-144.99;nan;52276.88;4998530;28;20014;-72
2023/08/11 07:53:57;;;;;;;;;;;;;;;-144.99;nan;52319.69;5005760;28;20000;-72
2023/08/11 07:56:24;;;;;;;;;;;;;;;-144.99;nan;52256.50;5009684;28;19942;-72
2023/08/11 07:58:52;;;;;;;;;;;;;;;-144.99;nan;52289.13;5003328;28;20055;-72
2023/08/11 08:01:19;;;;;;;;;;;;;;;-144.99;nan;52268.72;5006003;28;19999;-72
2023/08/11 08:03:46;;;;;;;;;;;;;;;-144.99;nan;52272.81;5007261;28;19972;-72
2023/08/11 08:06:13;;;;;;;;;;;;;;;-144.99;nan;52232.03;5009068;28;19964;-72
2023/08/11 08:08:39;;;;;;;;;;;;;;;-144.99;nan;52289.13;5000453;28;20330;-73
2023/08/11 08:11:06;;;;;;;;;;;;;;;-144.99;nan;52276.88;5001707;28;20025;-72
2023/08/11 08:13:32;;;;;;;;;;;;;;;-144.99;nan;52248.34;4998657;28;20068;-72
2023/08/11 08:16:01;;;;;;;;;;;;;;;-144.99;nan;52260.56;4999570;28;19946;-74
2023/08/11 08:18:27;;;;;;;;;;;;;;;-144.99;nan;52297.25;5004399;28;20041;-74
2023/08/11 08:20:54;;;;;;;;;;;;;;;-144.99;nan;52242.22;4997108;28;20029;-73
2023/08/11 08:23:20;;;;;;;;;;;;;;;-144.99;nan;52280.97;4999513;28;20008;-72
2023/08/11 08:25:47;;;;;;;;;;;;;;;-144.99;nan;52250.38;5004035;28;20046;-74
2023/08/11 08:28:13;;;;;;;;;;;;;;;-144.99;nan;52258.53;5007766;28;19994;-73
2023/08/11 08:30:40;;;;;;;;;;;;;;;-144.99;nan;52244.28;5004841;28;20036;-74
2023/08/11 08:33:07;;;;;;;;;;;;;;;-144.99;nan;52289.13;5008303;28;19964;-74
2023/08/11 08:35:34;;;;;;;;;;;;;;;-144.99;nan;52268.72;5009761;28;20012;-73
2023/08/11 08:38:00;;;;;;;;;;;;;;;-144.99;nan;52276.88;5005806;28;20384;-75
2023/08/11 08:40:27;;;;;;;;;;;;;;;-144.99;nan;52248.34;5009712;28;20001;-73
2023/08/11 08:42:54;;;;;;;;;;;;;;;-144.99;nan;52268.72;4997477;28;20058;-75
2023/08/11 08:45:22;;;;;;;;;;;;;;;-144.99;nan;52232.03;5000372;28;19948;-73
2023/08/11 08:47:50;;;;;;;;;;;;;;;-144.99;nan;52232.03;5000127;28;20000;-74
2023/08/11 08:50:18;;;;;;;;;;;;;;;-144.99;nan;52240.19;5008837;28;19975;-72
2023/08/11 08:52:45;;;;;;;;;;;;;;;-144.99;nan;52280.97;5002974;28;20023;-73
2023/08/11 08:55:12;;;;;;;;;;;;;;;-144.99;nan;52191.28;4998046;28;20433;-73
2023/08/11 08:57:40;;;;;;;;;;;;;;;-144.99;nan;52272.81;5009182;28;20415;-72
2023/08/11 09:00:08;;;;;;;;;;;;;;;-144.99;nan;52264.66;5001552;28;19954;-73
2023/08/11 09:02:35;;;;;;;;;;;;;;;-144.99;nan;52268.72;5009218;28;20005;-72
2023/08/11 09:05:03;;;;;;;;;;;;;;;-144.99;nan;52248.34;5014937;28;19940;-73
2023/08/11 09:07:30;;;;;;;;;;;;;;;-144.99;nan;52244.28;5005699;28;20040;-72
2023/08/11 09:09:57;;;;;;;;;;;;;;;-144.99;nan;52242.22;4995462;28;19993;-73
2023/08/11 09:12:25;;;;;;;;;;;;;;;-144.99;nan;52276.88;5001233;28;20072;-74
2023/08/11 09:14:52;;;;;;;;;;;;;;;-144.99;nan;52256.50;5001789;28;20361;-72
2023/08/11 09:17:19;;;;;;;;;;;;;;;-144.99;nan;52219.81;5001714;28;20381;-73
2023/08/11 09:19:51;;;;;;;;;;;;;;;-144.99;nan;52244.28;5006926;28;20322;-72
2023/08/11 09:22:23;;;;;;;;;;;;;;;-144.99;nan;52240.19;5010232;28;20061;-72
2023/08/11 09:24:52;;;;;;;;;;;;;;;-144.99;nan;52215.75;5008365;28;20216;-73
2023/08/11 09:27:20;;;;;;;;;;;;;;;-144.99;nan;52227.97;5013863;28;20036;-73
2023/08/11 09:29:49;;;;;;;;;;;;;;;-144.99;nan;52232.03;5004168;28;19969;-73
2023/08/11 09:32:16;;;;;;;;;;;;;;;-144.99;nan;52260.56;5011061;28;19964;-72
2023/08/11 09:34:44;;;;;;;;;;;;;;;-144.99;nan;52244.28;5002681;28;19994;-74
2023/08/11 09:37:10;;;;;;;;;;;;;;;-144.99;nan;52195.34;4999912;28;20373;-73
2023/08/11 09:39:37;;;;;;;;;;;;;;;-144.99;nan;52242.22;5007239;28;19993;-74
2023/08/11 09:42:05;;;;;;;;;;;;;;;-144.99;nan;52221.84;4999062;28;20024;-73
2023/08/11 09:44:32;;;;;;;;;;;;;;;-144.99;nan;52223.88;5004292;28;20021;-75
2023/08/11 09:47:00;;;;;;;;;;;;;;;-144.99;nan;52223.88;5005799;28;19994;-75
2023/08/11 09:49:27;;;;;;;;;;;;;;;-144.99;nan;52207.59;4997863;28;20091;-74
2023/08/11 09:51:55;;;;;;;;;;;;;;;-144.99;nan;52203.50;5019313;28;19960;-76
2023/08/11 09:54:22;;;;;;;;;;;;;;;-144.99;nan;52205.53;5011440;28;20016;-73
2023/08/11 09:56:50;;;;;;;;;;;;;;;-144.99;nan;52215.75;5012031;28;19992;-74
2023/08/11 09:59:18;;;;;;;;;;;;;;;-144.99;nan;52215.75;5009927;28;20329;-76
2023/08/11 10:01:45;;;;;;;;;;;;;;;-144.99;nan;52207.59;5007074;28;20014;-74
2023/08/11 10:04:15;;;;;;;;;;;;;;;-144.99;nan;52179.06;5007635;28;20037;-74
2023/08/11 10:06:43;;;;;;;;;;;;;;;-144.99;nan;52183.13;5002057;28;19946;-74
2023/08/11 10:09:12;;;;;;;;;;;;;;;-144.99;nan;52166.81;4999878;28;19986;-75
2023/08/11 10:11:39;;;;;;;;;;;;;;;-144.99;nan;52146.44;5002284;28;20021;-77
2023/08/11 10:14:06;;;;;;;;;;;;;;;-144.99;nan;52199.44;5007642;28;20083;-75
2023/08/11 10:16:35;;;;;;;;;;;;;;;-144.99;nan;52203.50;5008006;28;19993;-76
2023/08/11 10:19:02;;;;;;;;;;;;;;;-144.99;nan;52142.38;5007422;28;19946;-74
2023/08/11 10:21:29;;;;;;;;;;;;;;;-144.99;nan;52191.28;5007853;28;20015;-74
2023/08/11 10:23:55;;;;;;;;;;;;;;;-144.99;nan;52158.66;5007583;28;19977;-75
2023/08/11 10:26:23;;;;;;;;;;;;;;;-144.99;nan;52166.81;5008543;28;20030;-75
2023/08/11 10:28:50;;;;;;;;;;;;;;;-144.99;nan;52140.31;5009561;28;19950;-74
2023/08/11 10:31:16;;;;;;;;;;;;;;;-144.99;nan;52109.75;5008621;28;20030;-75
2023/08/11 10:33:50;;;;;;;;;;;;;;;-144.99;nan;52111.78;5008198;28;19996;-74
2023/08/11 10:36:17;;;;;;;;;;;;;;;-144.99;nan;52103.66;5008593;28;20032;-75
2023/08/11 10:38:43;;;;;;;;;;;;;;;-144.99;nan;52111.78;5006498;28;20048;-74
2023/08/11 10:41:10;;;;;;;;;;;;;;;-144.99;nan;52085.31;5006525;28;19954;-75
2023/08/11 10:43:40;;;;;;;;;;;;;;;-144.99;nan;52085.31;5009346;28;19942;-74
2023/08/11 10:46:17;;;;;;;;;;;;;;;-144.99;nan;52109.75;5011943;28;20458;-74
2023/08/11 10:48:44;;;;;;;;;;;;;;;-144.99;nan;52121.97;5019221;28;19997;-76
2023/08/11 10:51:24;;;;;;;;;;;;;;;-144.99;nan;52091.41;5008749;28;20061;-76
2023/08/11 10:53:50;;;;;;;;;;;;;;;-144.99;nan;52132.19;5006094;28;20053;-76
2023/08/11 10:56:27;;;;;;;;;;;;;;;-144.99;nan;52158.66;5008735;28;19957;-79
2023/08/11 10:58:53;;;;;;;;;;;;;;;-144.99;nan;52113.84;5003884;28;19952;-69
2023/08/11 11:01:20;;;;;;;;;;;;;;;-144.99;nan;52162.75;5004885;28;19963;-67
2023/08/11 11:03:47;;;;;;;;;;;;;;;-144.99;nan;52073.06;4996783;28;19989;-75
2023/08/11 11:06:15;;;;;;;;;;;;;;;-144.99;nan;52073.06;5004727;28;19949;-74
2023/08/11 11:08:43;;;;;;;;;;;;;;;-144.99;nan;52099.56;5004484;28;20094;-72
2023/08/11 11:11:09;;;;;;;;;;;;;;;-144.99;nan;52128.09;5003337;28;19954;-74
2023/08/11 11:13:36;;;;;;;;;;;;;;;-144.99;nan;52146.44;5008056;28;20027;-72
2023/08/11 11:16:02;;;;;;;;;;;;;;;-144.99;nan;52146.44;5005051;28;20372;-73
2023/08/11 11:18:29;;;;;;;;;;;;;;;-144.99;nan;52183.13;4999499;28;19949;-72
2023/08/11 11:20:56;;;;;;;;;;;;;;;-144.99;nan;52201.47;5005341;28;19945;-74
2023/08/11 11:23:22;;;;;;;;;;;;;;;-144.99;nan;52174.97;4999056;28;19951;-73
2023/08/11 11:25:50;;;;;;;;;;;;;;;-144.99;nan;52158.66;4999023;28;19995;-73
2023/08/11 11:28:17;;;;;;;;;;;;;;;-144.99;nan;52105.69;4999446;28;19951;-73
2023/08/11 11:30:43;;;;;;;;;;;;;;;-144.99;nan;52138.28;5001966;28;20018;-74
2023/08/11 11:33:10;;;;;;;;;;;;;;;-144.99;nan;52126.06;4995333;28;19997;-73
2023/08/11 11:35:36;;;;;;;;;;;;;;;-144.99;nan;52101.59;5005514;28;20050;-73
2023/08/11 11:38:03;;;;;;;;;;;;;;;-144.99;nan;52101.59;5012984;28;19942;-72
2023/08/11 11:40:32;;;;;;;;;;;;;;;-144.99;nan;52128.09;5006695;28;19984;-76
2023/08/11 11:43:00;;;;;;;;;;;;;;;-144.99;nan;52158.66;5002761;28;20064;-73
2023/08/11 11:45:27;;;;;;;;;;;;;;;-144.99;nan;52154.59;4997050;28;20398;-72
2023/08/11 11:47:54;;;;;;;;;;;;;;;-144.99;nan;52077.16;5006578;28;20457;-74
2023/08/11 11:50:22;;;;;;;;;;;;;;;-144.99;nan;52146.44;5002601;28;19942;-72
2023/08/11 11:52:49;;;;;;;;;;;;;;;-144.99;nan;52150.53;5011412;28;19955;-74
2023/08/11 11:55:16;;;;;;;;;;;;;;;-144.99;nan;52130.13;5009849;28;19948;-73
2023/08/11 11:57:43;;;;;;;;;;;;;;;-144.99;nan;52158.66;5010471;28;19971;-73
2023/08/11 12:00:16;;;;;;;;;;;;;;;-144.99;nan;52097.53;5008795;28;19946;-72
2023/08/11 12:02:43;;;;;;;;;;;;;;;-144.99;nan;52097.53;5001864;28;19962;-71
2023/08/11 12:05:10;;;;;;;;;;;;;;;-144.99;nan;52081.22;5010428;28;20304;-72
2023/08/11 12:07:37;;;;;;;;;;;;;;;-144.99;nan;52134.22;5012024;28;19950;-72
2023/08/11 12:10:04;;;;;;;;;;;;;;;-144.99;nan;51946.72;5014736;28;19983;-74
2023/08/11 12:12:31;;;;;;;;;;;;;;;-144.99;nan;51995.63;5007311;28;20393;-71
2023/08/11 12:15:01;;;;;;;;;;;;;;;-144.99;nan;52003.78;5008773;28;20519;-71
2023/08/11 12:17:32;;;;;;;;;;;;;;;-144.99;nan;52117.91;5005832;28;19944;-72
2023/08/11 12:19:58;;;;;;;;;;;;;;;-144.99;nan;52089.38;5010664;28;19950;-71
2023/08/11 12:22:25;;;;;;;;;;;;;;;-144.99;nan;52060.84;5008525;28;20059;-72
2023/08/11 12:24:51;;;;;;;;;;;;;;;-144.99;nan;52124.03;5007842;28;20375;-71
2023/08/11 12:27:18;;;;;;;;;;;;;;;-144.99;nan;52048.63;5009031;28;19946;-71
2023/08/11 12:29:44;;;;;;;;;;;;;;;-144.99;nan;51999.69;5003657;28;20376;-73
2023/08/11 12:32:11;;;;;;;;;;;;;;;-144.99;nan;52105.69;5006836;28;20031;-73
2023/08/11 12:34:38;;;;;;;;;;;;;;;-144.99;nan;52134.22;5008240;28;20102;-73
2023/08/11 12:37:05;;;;;;;;;;;;;;;-144.99;nan;52069.00;5006863;28;19947;-73
2023/08/11 12:39:31;;;;;;;;;;;;;;;-144.99;nan;52126.06;5008604;28;20395;-72
2023/08/11 12:41:58;;;;;;;;;;;;;;;-144.99;nan;52170.91;5007821;28;20003;-72
2023/08/11 12:44:25;;;;;;;;;;;;;;;-144.99;nan;52073.06;5005489;28;19948;-72